X  Kiinni Metar Aviation säätiedot     EHAM Amsterdam Airport Schiphol
Lämpötila
9°C Lämpötila
5°C Kastepiste
76% Kosteus



Tuuli
5 M/S
12 MPH
19 KM/T
10 KTS



220°
EL
Nykyiset olosuhteet

Puolipilvistä Puolipilvistä
Paine 1008.81 (hPa) - 29.79 (inHg)
Näkyvyys 6 (maili) - 9.7 (km)
Lentokenttä
Lentokentän koodi EHAM

Sijainti: Amsterdam Airport Schiphol
Etäisyys: 26 (km)

Metar:
EHAM 150525Z 22010KT 9999 FEW020 09/05 Q1009 NOSIG

Aika: 15-04-2024 07:25 CEST